sensor_id;sensor_type;location;lat;lon;timestamp;temperature;humidity
20744;DHT22;56303;52.160;-0.428;2022-07-01T00:02:03;14.30;99.90
20744;DHT22;56303;52.160;-0.428;2022-07-01T00:04:30;14.30;99.90
20744;DHT22;56303;52.160;-0.428;2022-07-01T00:06:57;14.40;99.90
20744;DHT22;56303;52.160;-0.428;2022-07-01T00:09:24;14.40;99.90
20744;DHT22;56303;52.160;-0.428;2022-07-01T00:11:51;14.50;99.90
20744;DHT22;56303;52.160;-0.428;2022-07-01T00:14:18;14.60;99.90
20744;DHT22;56303;52.160;-0.428;2022-07-01T00:16:45;14.50;99.90
20744;DHT22;56303;52.160;-0.428;2022-07-01T00:19:12;14.50;99.90
20744;DHT22;56303;52.160;-0.428;2022-07-01T00:21:39;14.40;99.90
20744;DHT22;56303;52.160;-0.428;2022-07-01T00:24:06;14.40;99.90
20744;DHT22;56303;52.160;-0.428;2022-07-01T00:26:33;14.40;99.90
20744;DHT22;56303;52.160;-0.428;2022-07-01T00:29:00;14.30;99.90
20744;DHT22;56303;52.160;-0.428;2022-07-01T00:31:27;14.30;99.90
20744;DHT22;56303;52.160;-0.428;2022-07-01T00:33:54;14.30;99.90
20744;DHT22;56303;52.160;-0.428;2022-07-01T00:36:21;14.30;99.90
20744;DHT22;56303;52.160;-0.428;2022-07-01T00:38:52;14.20;99.90
20744;DHT22;56303;52.160;-0.428;2022-07-01T00:41:19;14.10;99.90
20744;DHT22;56303;52.160;-0.428;2022-07-01T00:43:46;14.20;99.90
20744;DHT22;56303;52.160;-0.428;2022-07-01T00:46:22;14.10;99.90
20744;DHT22;56303;52.160;-0.428;2022-07-01T00:48:53;14.10;99.90
20744;DHT22;56303;52.160;-0.428;2022-07-01T00:51:20;14.10;99.90
20744;DHT22;56303;52.160;-0.428;2022-07-01T00:53:48;14.10;99.90
20744;DHT22;56303;52.160;-0.428;2022-07-01T00:56:15;14.20;99.90
20744;DHT22;56303;52.160;-0.428;2022-07-01T00:58:42;14.20;99.90
20744;DHT22;56303;52.160;-0.428;2022-07-01T01:01:10;14.10;99.90
20744;DHT22;56303;52.160;-0.428;2022-07-01T01:03:37;14.20;99.90
20744;DHT22;56303;52.160;-0.428;2022-07-01T01:06:04;14.20;99.90
20744;DHT22;56303;52.160;-0.428;2022-07-01T01:08:31;14.20;99.90
20744;DHT22;56303;52.160;-0.428;2022-07-01T01:10:58;14.10;99.90
20744;DHT22;56303;52.160;-0.428;2022-07-01T01:13:26;14.20;99.90
20744;DHT22;56303;52.160;-0.428;2022-07-01T01:15:53;14.30;99.90
20744;DHT22;56303;52.160;-0.428;2022-07-01T01:18:20;14.40;99.90
20744;DHT22;56303;52.160;-0.428;2022-07-01T01:20:47;14.20;99.90
20744;DHT22;56303;52.160;-0.428;2022-07-01T01:23:14;14.20;99.90
20744;DHT22;56303;52.160;-0.428;2022-07-01T01:25:41;14.20;99.90
20744;DHT22;56303;52.160;-0.428;2022-07-01T01:28:08;14.10;99.90
20744;DHT22;56303;52.160;-0.428;2022-07-01T01:30:35;14.00;99.90
20744;DHT22;56303;52.160;-0.428;2022-07-01T01:33:02;14.10;99.90
20744;DHT22;56303;52.160;-0.428;2022-07-01T01:35:29;14.20;99.90
20744;DHT22;56303;52.160;-0.428;2022-07-01T01:37:57;14.20;99.90
20744;DHT22;56303;52.160;-0.428;2022-07-01T01:40:25;14.10;99.90
20744;DHT22;56303;52.160;-0.428;2022-07-01T01:42:52;14.00;99.90
20744;DHT22;56303;52.160;-0.428;2022-07-01T01:45:19;14.10;99.90
20744;DHT22;56303;52.160;-0.428;2022-07-01T01:47:46;14.00;99.90
20744;DHT22;56303;52.160;-0.428;2022-07-01T01:50:14;13.80;99.90
20744;DHT22;56303;52.160;-0.428;2022-07-01T01:52:41;13.90;99.90
20744;DHT22;56303;52.160;-0.428;2022-07-01T01:55:10;14.00;99.90
20744;DHT22;56303;52.160;-0.428;2022-07-01T01:57:38;14.00;99.90
20744;DHT22;56303;52.160;-0.428;2022-07-01T02:00:06;14.10;99.90
20744;DHT22;56303;52.160;-0.428;2022-07-01T02:02:34;14.20;99.90
20744;DHT22;56303;52.160;-0.428;2022-07-01T02:05:09;14.10;99.90
20744;DHT22;56303;52.160;-0.428;2022-07-01T02:07:37;14.10;99.90
20744;DHT22;56303;52.160;-0.428;2022-07-01T02:10:05;14.20;99.90
20744;DHT22;56303;52.160;-0.428;2022-07-01T02:12:32;14.20;99.90
20744;DHT22;56303;52.160;-0.428;2022-07-01T02:15:00;14.20;99.90
20744;DHT22;56303;52.160;-0.428;2022-07-01T02:17:26;14.30;99.90
20744;DHT22;56303;52.160;-0.428;2022-07-01T02:19:53;14.30;99.90
20744;DHT22;56303;52.160;-0.428;2022-07-01T02:22:20;14.50;99.90
20744;DHT22;56303;52.160;-0.428;2022-07-01T02:24:47;14.40;99.90
20744;DHT22;56303;52.160;-0.428;2022-07-01T02:27:14;14.40;99.90
20744;DHT22;56303;52.160;-0.428;2022-07-01T02:29:41;14.40;99.90
20744;DHT22;56303;52.160;-0.428;2022-07-01T02:32:08;14.60;99.90
20744;DHT22;56303;52.160;-0.428;2022-07-01T02:34:35;14.50;99.90
20744;DHT22;56303;52.160;-0.428;2022-07-01T02:37:03;14.50;99.90
20744;DHT22;56303;52.160;-0.428;2022-07-01T02:39:30;14.40;99.90
20744;DHT22;56303;52.160;-0.428;2022-07-01T02:41:58;14.60;99.90
20744;DHT22;56303;52.160;-0.428;2022-07-01T02:44:44;14.60;99.90
20744;DHT22;56303;52.160;-0.428;2022-07-01T02:47:11;14.70;99.90
20744;DHT22;56303;52.160;-0.428;2022-07-01T02:49:37;14.80;99.90
20744;DHT22;56303;52.160;-0.428;2022-07-01T02:52:06;14.90;99.90
20744;DHT22;56303;52.160;-0.428;2022-07-01T02:54:33;14.90;99.90
20744;DHT22;56303;52.160;-0.428;2022-07-01T02:57:00;14.90;99.90
20744;DHT22;56303;52.160;-0.428;2022-07-01T02:59:27;14.90;99.90
20744;DHT22;56303;52.160;-0.428;2022-07-01T03:01:55;14.90;99.90
20744;DHT22;56303;52.160;-0.428;2022-07-01T03:04:22;14.80;99.90
20744;DHT22;56303;52.160;-0.428;2022-07-01T03:06:49;14.80;99.90
20744;DHT22;56303;52.160;-0.428;2022-07-01T03:09:16;14.90;99.90
20744;DHT22;56303;52.160;-0.428;2022-07-01T03:11:43;14.80;99.90
20744;DHT22;56303;52.160;-0.428;2022-07-01T03:14:10;14.10;99.90
20744;DHT22;56303;52.160;-0.428;2022-07-01T03:16:37;15.00;99.90
20744;DHT22;56303;52.160;-0.428;2022-07-01T03:19:04;15.00;99.90
20744;DHT22;56303;52.160;-0.428;2022-07-01T03:21:32;15.00;99.90
20744;DHT22;56303;52.160;-0.428;2022-07-01T03:23:59;15.10;99.90
20744;DHT22;56303;52.160;-0.428;2022-07-01T03:26:26;15.00;99.90
20744;DHT22;56303;52.160;-0.428;2022-07-01T03:28:53;14.80;99.90
20744;DHT22;56303;52.160;-0.428;2022-07-01T03:31:20;14.80;99.90
20744;DHT22;56303;52.160;-0.428;2022-07-01T03:33:47;15.00;99.90
20744;DHT22;56303;52.160;-0.428;2022-07-01T03:36:14;15.00;99.90
20744;DHT22;56303;52.160;-0.428;2022-07-01T03:38:41;15.00;99.90
20744;DHT22;56303;52.160;-0.428;2022-07-01T03:41:09;14.90;99.90
20744;DHT22;56303;52.160;-0.428;2022-07-01T03:43:36;14.90;99.90
20744;DHT22;56303;52.160;-0.428;2022-07-01T03:46:03;14.60;99.90
20744;DHT22;56303;52.160;-0.428;2022-07-01T03:48:29;14.60;99.90
20744;DHT22;56303;52.160;-0.428;2022-07-01T03:50:56;14.70;99.90
20744;DHT22;56303;52.160;-0.428;2022-07-01T03:53:23;14.60;99.90
20744;DHT22;56303;52.160;-0.428;2022-07-01T03:56:08;14.60;99.90
20744;DHT22;56303;52.160;-0.428;2022-07-01T03:58:35;14.70;99.90
20744;DHT22;56303;52.160;-0.428;2022-07-01T04:01:02;14.70;99.90
20744;DHT22;56303;52.160;-0.428;2022-07-01T04:03:30;14.70;99.90
20744;DHT22;56303;52.160;-0.428;2022-07-01T04:05:57;14.50;99.90
20744;DHT22;56303;52.160;-0.428;2022-07-01T04:08:24;14.40;99.90
20744;DHT22;56303;52.160;-0.428;2022-07-01T04:10:51;14.40;99.90
20744;DHT22;56303;52.160;-0.428;2022-07-01T04:13:20;14.40;99.90
20744;DHT22;56303;52.160;-0.428;2022-07-01T04:15:58;14.50;99.90
20744;DHT22;56303;52.160;-0.428;2022-07-01T04:18:26;14.50;99.90
20744;DHT22;56303;52.160;-0.428;2022-07-01T04:20:53;14.60;99.90
20744;DHT22;56303;52.160;-0.428;2022-07-01T04:23:38;14.70;99.90
20744;DHT22;56303;52.160;-0.428;2022-07-01T04:26:05;14.70;99.90
20744;DHT22;56303;52.160;-0.428;2022-07-01T04:28:53;14.70;99.90
20744;DHT22;56303;52.160;-0.428;2022-07-01T04:31:21;14.70;99.90
20744;DHT22;56303;52.160;-0.428;2022-07-01T04:33:48;14.60;99.90
20744;DHT22;56303;52.160;-0.428;2022-07-01T04:36:16;14.60;99.90
20744;DHT22;56303;52.160;-0.428;2022-07-01T04:38:43;14.80;99.90
20744;DHT22;56303;52.160;-0.428;2022-07-01T04:41:10;14.70;99.90
20744;DHT22;56303;52.160;-0.428;2022-07-01T04:43:56;14.80;99.90
20744;DHT22;56303;52.160;-0.428;2022-07-01T04:46:24;14.80;99.90
20744;DHT22;56303;52.160;-0.428;2022-07-01T04:48:51;14.80;99.90
20744;DHT22;56303;52.160;-0.428;2022-07-01T04:51:17;14.70;99.90
20744;DHT22;56303;52.160;-0.428;2022-07-01T04:53:44;14.80;99.90
20744;DHT22;56303;52.160;-0.428;2022-07-01T04:56:11;14.70;99.90
20744;DHT22;56303;52.160;-0.428;2022-07-01T04:58:38;14.70;99.90
20744;DHT22;56303;52.160;-0.428;2022-07-01T05:01:05;14.80;99.90
20744;DHT22;56303;52.160;-0.428;2022-07-01T05:03:32;14.90;99.90
20744;DHT22;56303;52.160;-0.428;2022-07-01T05:05:59;15.00;99.90
20744;DHT22;56303;52.160;-0.428;2022-07-01T05:08:26;15.10;99.90
20744;DHT22;56303;52.160;-0.428;2022-07-01T05:10:53;15.10;99.90
20744;DHT22;56303;52.160;-0.428;2022-07-01T05:13:19;15.10;99.90
20744;DHT22;56303;52.160;-0.428;2022-07-01T05:15:46;15.00;99.90
20744;DHT22;56303;52.160;-0.428;2022-07-01T05:18:13;14.90;99.90
20744;DHT22;56303;52.160;-0.428;2022-07-01T05:20:59;15.00;99.90
20744;DHT22;56303;52.160;-0.428;2022-07-01T05:23:44;14.90;99.90
20744;DHT22;56303;52.160;-0.428;2022-07-01T05:26:12;14.90;99.90
20744;DHT22;56303;52.160;-0.428;2022-07-01T05:28:46;14.90;99.90
20744;DHT22;56303;52.160;-0.428;2022-07-01T05:31:14;14.80;99.90
20744;DHT22;56303;52.160;-0.428;2022-07-01T05:33:41;14.80;99.90
20744;DHT22;56303;52.160;-0.428;2022-07-01T05:36:08;14.80;99.90
20744;DHT22;56303;52.160;-0.428;2022-07-01T05:38:36;14.90;99.90
20744;DHT22;56303;52.160;-0.428;2022-07-01T05:41:03;15.00;99.90
20744;DHT22;56303;52.160;-0.428;2022-07-01T05:43:30;15.10;99.90
20744;DHT22;56303;52.160;-0.428;2022-07-01T05:45:57;14.90;99.90
20744;DHT22;56303;52.160;-0.428;2022-07-01T05:48:24;15.10;99.90
20744;DHT22;56303;52.160;-0.428;2022-07-01T05:50:51;15.10;99.90
20744;DHT22;56303;52.160;-0.428;2022-07-01T05:53:19;15.00;99.90
20744;DHT22;56303;52.160;-0.428;2022-07-01T05:55:46;15.10;99.90
20744;DHT22;56303;52.160;-0.428;2022-07-01T05:58:13;14.90;99.90
20744;DHT22;56303;52.160;-0.428;2022-07-01T06:00:41;14.80;99.90
20744;DHT22;56303;52.160;-0.428;2022-07-01T06:03:12;14.90;99.90
20744;DHT22;56303;52.160;-0.428;2022-07-01T06:05:40;15.00;99.90
20744;DHT22;56303;52.160;-0.428;2022-07-01T06:08:07;15.00;99.90
20744;DHT22;56303;52.160;-0.428;2022-07-01T06:10:35;15.10;99.90
20744;DHT22;56303;52.160;-0.428;2022-07-01T06:13:03;15.00;99.90
20744;DHT22;56303;52.160;-0.428;2022-07-01T06:15:30;14.90;99.90
20744;DHT22;56303;52.160;-0.428;2022-07-01T06:17:57;15.00;99.90
20744;DHT22;56303;52.160;-0.428;2022-07-01T06:20:24;14.80;99.90
20744;DHT22;56303;52.160;-0.428;2022-07-01T06:22:51;14.80;99.90
20744;DHT22;56303;52.160;-0.428;2022-07-01T06:25:18;14.60;99.90
20744;DHT22;56303;52.160;-0.428;2022-07-01T06:27:45;14.60;99.90
20744;DHT22;56303;52.160;-0.428;2022-07-01T06:30:13;14.60;99.90
20744;DHT22;56303;52.160;-0.428;2022-07-01T06:32:40;14.70;99.90
20744;DHT22;56303;52.160;-0.428;2022-07-01T06:35:07;14.90;99.90
20744;DHT22;56303;52.160;-0.428;2022-07-01T06:37:35;15.00;99.90
20744;DHT22;56303;52.160;-0.428;2022-07-01T06:40:04;15.10;99.90
20744;DHT22;56303;52.160;-0.428;2022-07-01T06:42:31;15.00;99.90
20744;DHT22;56303;52.160;-0.428;2022-07-01T06:44:58;15.80;99.90
20744;DHT22;56303;52.160;-0.428;2022-07-01T06:47:25;15.20;99.90
20744;DHT22;56303;52.160;-0.428;2022-07-01T06:49:52;15.20;99.90
20744;DHT22;56303;52.160;-0.428;2022-07-01T06:52:20;15.10;99.90
20744;DHT22;56303;52.160;-0.428;2022-07-01T06:54:48;15.10;99.90
20744;DHT22;56303;52.160;-0.428;2022-07-01T06:57:15;15.20;99.90
20744;DHT22;56303;52.160;-0.428;2022-07-01T06:59:42;15.20;99.90
20744;DHT22;56303;52.160;-0.428;2022-07-01T07:02:09;15.20;99.90
20744;DHT22;56303;52.160;-0.428;2022-07-01T07:04:35;15.50;99.90
20744;DHT22;56303;52.160;-0.428;2022-07-01T07:07:22;15.60;99.90
20744;DHT22;56303;52.160;-0.428;2022-07-01T07:09:49;15.50;99.90
20744;DHT22;56303;52.160;-0.428;2022-07-01T07:12:16;15.60;99.90
20744;DHT22;56303;52.160;-0.428;2022-07-01T07:14:43;15.40;99.90
20744;DHT22;56303;52.160;-0.428;2022-07-01T07:17:10;15.30;99.90
20744;DHT22;56303;52.160;-0.428;2022-07-01T07:19:36;15.50;99.90
20744;DHT22;56303;52.160;-0.428;2022-07-01T07:22:03;15.70;99.90
20744;DHT22;56303;52.160;-0.428;2022-07-01T07:24:30;15.50;99.90
20744;DHT22;56303;52.160;-0.428;2022-07-01T07:26:57;15.70;99.90
20744;DHT22;56303;52.160;-0.428;2022-07-01T07:29:24;15.60;99.90
20744;DHT22;56303;52.160;-0.428;2022-07-01T07:31:51;15.50;99.90
20744;DHT22;56303;52.160;-0.428;2022-07-01T07:34:18;15.70;99.90
20744;DHT22;56303;52.160;-0.428;2022-07-01T07:36:44;15.60;99.90
20744;DHT22;56303;52.160;-0.428;2022-07-01T07:39:11;15.80;99.90
20744;DHT22;56303;52.160;-0.428;2022-07-01T07:41:38;15.70;99.90
20744;DHT22;56303;52.160;-0.428;2022-07-01T07:44:06;15.70;99.90
20744;DHT22;56303;52.160;-0.428;2022-07-01T07:46:32;16.00;99.90
20744;DHT22;56303;52.160;-0.428;2022-07-01T07:48:59;16.20;99.90
20744;DHT22;56303;52.160;-0.428;2022-07-01T07:51:26;16.30;99.90
20744;DHT22;56303;52.160;-0.428;2022-07-01T07:53:53;16.20;99.90
20744;DHT22;56303;52.160;-0.428;2022-07-01T07:56:20;16.00;99.90
20744;DHT22;56303;52.160;-0.428;2022-07-01T07:58:47;15.90;99.90
20744;DHT22;56303;52.160;-0.428;2022-07-01T08:01:14;16.20;99.90
20744;DHT22;56303;52.160;-0.428;2022-07-01T08:03:41;16.50;99.90
20744;DHT22;56303;52.160;-0.428;2022-07-01T08:06:08;16.60;99.90
20744;DHT22;56303;52.160;-0.428;2022-07-01T08:08:35;17.50;99.90
20744;DHT22;56303;52.160;-0.428;2022-07-01T08:11:02;17.00;99.90
20744;DHT22;56303;52.160;-0.428;2022-07-01T08:13:29;16.90;99.90
20744;DHT22;56303;52.160;-0.428;2022-07-01T08:15:56;17.00;99.90
20744;DHT22;56303;52.160;-0.428;2022-07-01T08:18:23;17.10;99.90
20744;DHT22;56303;52.160;-0.428;2022-07-01T08:20:50;17.00;99.90
20744;DHT22;56303;52.160;-0.428;2022-07-01T08:23:22;16.90;99.90
20744;DHT22;56303;52.160;-0.428;2022-07-01T08:25:50;16.90;99.90
20744;DHT22;56303;52.160;-0.428;2022-07-01T08:28:17;17.00;99.90
20744;DHT22;56303;52.160;-0.428;2022-07-01T08:30:44;17.00;99.90
20744;DHT22;56303;52.160;-0.428;2022-07-01T08:33:11;17.10;99.90
20744;DHT22;56303;52.160;-0.428;2022-07-01T08:35:38;17.20;99.90
20744;DHT22;56303;52.160;-0.428;2022-07-01T08:38:06;17.20;99.90
20744;DHT22;56303;52.160;-0.428;2022-07-01T08:40:33;17.30;99.90
20744;DHT22;56303;52.160;-0.428;2022-07-01T08:43:03;17.20;99.90
20744;DHT22;56303;52.160;-0.428;2022-07-01T08:45:34;17.40;99.90
20744;DHT22;56303;52.160;-0.428;2022-07-01T08:48:03;17.40;99.90
20744;DHT22;56303;52.160;-0.428;2022-07-01T08:50:34;16.50;99.90
20744;DHT22;56303;52.160;-0.428;2022-07-01T08:53:02;17.40;99.90
20744;DHT22;56303;52.160;-0.428;2022-07-01T08:55:30;17.50;99.90
20744;DHT22;56303;52.160;-0.428;2022-07-01T08:57:58;17.50;99.90
20744;DHT22;56303;52.160;-0.428;2022-07-01T09:00:31;17.60;99.90
20744;DHT22;56303;52.160;-0.428;2022-07-01T09:03:00;17.80;99.90
20744;DHT22;56303;52.160;-0.428;2022-07-01T09:05:29;17.70;99.90
20744;DHT22;56303;52.160;-0.428;2022-07-01T09:08:04;17.60;99.90
20744;DHT22;56303;52.160;-0.428;2022-07-01T09:10:33;17.70;99.90
20744;DHT22;56303;52.160;-0.428;2022-07-01T09:13:09;17.70;99.90
20744;DHT22;56303;52.160;-0.428;2022-07-01T09:15:39;17.50;99.90
20744;DHT22;56303;52.160;-0.428;2022-07-01T09:18:12;17.80;99.90
20744;DHT22;56303;52.160;-0.428;2022-07-01T09:20:44;18.20;99.90
20744;DHT22;56303;52.160;-0.428;2022-07-01T09:23:13;18.10;99.90
20744;DHT22;56303;52.160;-0.428;2022-07-01T09:25:43;18.20;99.90
20744;DHT22;56303;52.160;-0.428;2022-07-01T09:28:21;17.90;99.90
20744;DHT22;56303;52.160;-0.428;2022-07-01T09:30:50;17.90;99.90
20744;DHT22;56303;52.160;-0.428;2022-07-01T09:33:23;18.40;99.90
20744;DHT22;56303;52.160;-0.428;2022-07-01T09:35:51;18.60;99.90
20744;DHT22;56303;52.160;-0.428;2022-07-01T09:38:21;18.90;99.90
20744;DHT22;56303;52.160;-0.428;2022-07-01T09:41:03;18.90;99.90
20744;DHT22;56303;52.160;-0.428;2022-07-01T09:43:34;18.70;99.90
20744;DHT22;56303;52.160;-0.428;2022-07-01T09:46:07;18.50;99.90
20744;DHT22;56303;52.160;-0.428;2022-07-01T09:51:03;18.70;99.90
20744;DHT22;56303;52.160;-0.428;2022-07-01T09:53:31;19.10;99.90
20744;DHT22;56303;52.160;-0.428;2022-07-01T09:55:58;19.40;99.90
20744;DHT22;56303;52.160;-0.428;2022-07-01T09:58:26;19.30;99.90
20744;DHT22;56303;52.160;-0.428;2022-07-01T10:00:53;19.50;99.90
20744;DHT22;56303;52.160;-0.428;2022-07-01T10:03:22;19.20;99.90
20744;DHT22;56303;52.160;-0.428;2022-07-01T10:05:52;19.70;99.90
20744;DHT22;56303;52.160;-0.428;2022-07-01T10:11:57;19.10;99.90
20744;DHT22;56303;52.160;-0.428;2022-07-01T10:14:30;19.30;99.90
20744;DHT22;56303;52.160;-0.428;2022-07-01T10:16:57;19.40;99.90
20744;DHT22;56303;52.160;-0.428;2022-07-01T10:19:28;19.10;99.90
20744;DHT22;56303;52.160;-0.428;2022-07-01T10:22:01;19.60;99.90
20744;DHT22;56303;52.160;-0.428;2022-07-01T10:24:46;19.70;99.90
20744;DHT22;56303;52.160;-0.428;2022-07-01T10:27:22;20.00;99.90
20744;DHT22;56303;52.160;-0.428;2022-07-01T10:30:12;20.10;99.90
20744;DHT22;56303;52.160;-0.428;2022-07-01T10:32:45;20.20;99.90
20744;DHT22;56303;52.160;-0.428;2022-07-01T10:35:35;20.40;99.90
20744;DHT22;56303;52.160;-0.428;2022-07-01T10:38:03;20.20;99.90
20744;DHT22;56303;52.160;-0.428;2022-07-01T10:40:44;19.80;99.90
20744;DHT22;56303;52.160;-0.428;2022-07-01T10:43:36;19.70;99.90
20744;DHT22;56303;52.160;-0.428;2022-07-01T10:46:04;19.70;99.90
20744;DHT22;56303;52.160;-0.428;2022-07-01T10:48:32;19.90;99.90
20744;DHT22;56303;52.160;-0.428;2022-07-01T10:51:00;20.00;99.90
20744;DHT22;56303;52.160;-0.428;2022-07-01T10:53:47;20.00;99.90
20744;DHT22;56303;52.160;-0.428;2022-07-01T10:56:38;20.20;99.90
20744;DHT22;56303;52.160;-0.428;2022-07-01T10:59:05;19.90;99.90
20744;DHT22;56303;52.160;-0.428;2022-07-01T11:01:32;19.90;99.90
20744;DHT22;56303;52.160;-0.428;2022-07-01T11:04:00;19.90;99.90
20744;DHT22;56303;52.160;-0.428;2022-07-01T11:06:28;20.00;99.90
20744;DHT22;56303;52.160;-0.428;2022-07-01T11:08:55;20.10;99.90
20744;DHT22;56303;52.160;-0.428;2022-07-01T11:11:22;20.20;99.90
20744;DHT22;56303;52.160;-0.428;2022-07-01T11:13:49;20.70;99.90
20744;DHT22;56303;52.160;-0.428;2022-07-01T11:16:16;20.90;99.90
20744;DHT22;56303;52.160;-0.428;2022-07-01T11:18:44;21.00;99.90
20744;DHT22;56303;52.160;-0.428;2022-07-01T11:21:11;20.80;99.90
20744;DHT22;56303;52.160;-0.428;2022-07-01T11:23:39;20.90;99.90
20744;DHT22;56303;52.160;-0.428;2022-07-01T11:26:20;21.40;99.90
20744;DHT22;56303;52.160;-0.428;2022-07-01T11:28:47;21.70;99.90
20744;DHT22;56303;52.160;-0.428;2022-07-01T11:31:13;21.20;99.90
20744;DHT22;56303;52.160;-0.428;2022-07-01T11:33:40;21.00;99.90
20744;DHT22;56303;52.160;-0.428;2022-07-01T11:36:07;20.70;99.90
20744;DHT22;56303;52.160;-0.428;2022-07-01T11:38:54;20.50;99.90
20744;DHT22;56303;52.160;-0.428;2022-07-01T11:41:40;20.60;99.90
20744;DHT22;56303;52.160;-0.428;2022-07-01T11:44:07;20.40;99.90
20744;DHT22;56303;52.160;-0.428;2022-07-01T11:46:34;20.50;99.90
20744;DHT22;56303;52.160;-0.428;2022-07-01T11:49:11;20.70;99.90
20744;DHT22;56303;52.160;-0.428;2022-07-01T11:51:39;20.60;99.90
20744;DHT22;56303;52.160;-0.428;2022-07-01T11:54:06;20.80;99.90
20744;DHT22;56303;52.160;-0.428;2022-07-01T11:56:35;20.10;99.90
20744;DHT22;56303;52.160;-0.428;2022-07-01T11:59:08;21.10;99.90
20744;DHT22;56303;52.160;-0.428;2022-07-01T12:01:37;21.30;99.90
20744;DHT22;56303;52.160;-0.428;2022-07-01T12:04:08;21.00;99.90
20744;DHT22;56303;52.160;-0.428;2022-07-01T12:06:37;20.90;99.90
20744;DHT22;56303;52.160;-0.428;2022-07-01T12:09:13;20.70;99.90
20744;DHT22;56303;52.160;-0.428;2022-07-01T12:11:44;20.60;99.90
20744;DHT22;56303;52.160;-0.428;2022-07-01T12:14:22;20.60;99.90
20744;DHT22;56303;52.160;-0.428;2022-07-01T12:16:54;20.40;99.90
20744;DHT22;56303;52.160;-0.428;2022-07-01T12:19:42;20.00;99.90
20744;DHT22;56303;52.160;-0.428;2022-07-01T12:22:16;20.20;99.90
20744;DHT22;56303;52.160;-0.428;2022-07-01T12:24:46;20.20;99.90
20744;DHT22;56303;52.160;-0.428;2022-07-01T12:27:13;19.70;99.90
20744;DHT22;56303;52.160;-0.428;2022-07-01T12:32:17;18.40;99.90
20744;DHT22;56303;52.160;-0.428;2022-07-01T12:34:47;18.30;99.90
20744;DHT22;56303;52.160;-0.428;2022-07-01T12:37:16;18.20;99.90
20744;DHT22;56303;52.160;-0.428;2022-07-01T12:39:45;18.20;99.90
20744;DHT22;56303;52.160;-0.428;2022-07-01T12:42:28;18.20;99.90
20744;DHT22;56303;52.160;-0.428;2022-07-01T12:44:57;18.60;99.90
20744;DHT22;56303;52.160;-0.428;2022-07-01T12:47:34;19.10;99.90
20744;DHT22;56303;52.160;-0.428;2022-07-01T12:55:35;21.10;99.90
20744;DHT22;56303;52.160;-0.428;2022-07-01T12:58:13;21.10;99.90
20744;DHT22;56303;52.160;-0.428;2022-07-01T13:00:43;21.00;99.90
20744;DHT22;56303;52.160;-0.428;2022-07-01T13:03:10;21.00;99.90
20744;DHT22;56303;52.160;-0.428;2022-07-01T13:05:38;21.10;99.90
20744;DHT22;56303;52.160;-0.428;2022-07-01T13:08:09;21.50;99.90
20744;DHT22;56303;52.160;-0.428;2022-07-01T13:10:37;21.90;99.90
20744;DHT22;56303;52.160;-0.428;2022-07-01T13:13:05;21.70;99.90
20744;DHT22;56303;52.160;-0.428;2022-07-01T13:15:33;21.20;99.90
20744;DHT22;56303;52.160;-0.428;2022-07-01T13:18:01;21.00;99.90
20744;DHT22;56303;52.160;-0.428;2022-07-01T13:20:29;21.20;99.90
20744;DHT22;56303;52.160;-0.428;2022-07-01T13:22:56;21.30;99.90
20744;DHT22;56303;52.160;-0.428;2022-07-01T13:25:23;22.00;99.90
20744;DHT22;56303;52.160;-0.428;2022-07-01T13:27:50;23.10;99.90
20744;DHT22;56303;52.160;-0.428;2022-07-01T13:30:18;22.10;99.90
20744;DHT22;56303;52.160;-0.428;2022-07-01T13:32:45;22.20;99.90
20744;DHT22;56303;52.160;-0.428;2022-07-01T13:35:13;22.50;99.90
20744;DHT22;56303;52.160;-0.428;2022-07-01T13:37:41;22.60;99.90
20744;DHT22;56303;52.160;-0.428;2022-07-01T13:40:09;22.10;99.90
20744;DHT22;56303;52.160;-0.428;2022-07-01T13:42:37;22.80;99.90
20744;DHT22;56303;52.160;-0.428;2022-07-01T13:45:04;23.60;99.90
20744;DHT22;56303;52.160;-0.428;2022-07-01T13:47:32;23.90;99.90
20744;DHT22;56303;52.160;-0.428;2022-07-01T13:49:59;24.10;99.90
20744;DHT22;56303;52.160;-0.428;2022-07-01T13:52:26;23.80;99.20
20744;DHT22;56303;52.160;-0.428;2022-07-01T13:54:57;23.90;99.40
20744;DHT22;56303;52.160;-0.428;2022-07-01T13:57:25;24.50;99.20
20744;DHT22;56303;52.160;-0.428;2022-07-01T13:59:52;24.10;99.60
20744;DHT22;56303;52.160;-0.428;2022-07-01T14:02:19;24.40;99.40
20744;DHT22;56303;52.160;-0.428;2022-07-01T14:04:47;25.40;99.60
20744;DHT22;56303;52.160;-0.428;2022-07-01T14:07:14;24.80;99.70
20744;DHT22;56303;52.160;-0.428;2022-07-01T14:09:41;24.30;97.80
20744;DHT22;56303;52.160;-0.428;2022-07-01T14:12:11;24.00;99.20
20744;DHT22;56303;52.160;-0.428;2022-07-01T14:14:45;23.90;99.40
20744;DHT22;56303;52.160;-0.428;2022-07-01T14:17:12;24.20;99.90
20744;DHT22;56303;52.160;-0.428;2022-07-01T14:19:38;22.90;99.90
20744;DHT22;56303;52.160;-0.428;2022-07-01T14:22:06;22.10;99.90
20744;DHT22;56303;52.160;-0.428;2022-07-01T14:24:33;21.50;99.90
20744;DHT22;56303;52.160;-0.428;2022-07-01T14:27:00;20.80;99.90
20744;DHT22;56303;52.160;-0.428;2022-07-01T14:29:28;20.60;99.90
20744;DHT22;56303;52.160;-0.428;2022-07-01T14:31:55;20.70;99.90
20744;DHT22;56303;52.160;-0.428;2022-07-01T14:34:22;20.90;99.90
20744;DHT22;56303;52.160;-0.428;2022-07-01T14:36:49;21.20;99.90
20744;DHT22;56303;52.160;-0.428;2022-07-01T14:39:16;21.40;99.90
20744;DHT22;56303;52.160;-0.428;2022-07-01T14:41:42;22.20;99.90
20744;DHT22;56303;52.160;-0.428;2022-07-01T14:44:10;23.20;99.90
20744;DHT22;56303;52.160;-0.428;2022-07-01T14:46:37;23.40;99.90
20744;DHT22;56303;52.160;-0.428;2022-07-01T14:49:04;22.80;99.90
20744;DHT22;56303;52.160;-0.428;2022-07-01T14:51:31;22.80;99.90
20744;DHT22;56303;52.160;-0.428;2022-07-01T14:53:58;22.80;99.90
20744;DHT22;56303;52.160;-0.428;2022-07-01T14:56:25;23.30;99.90
20744;DHT22;56303;52.160;-0.428;2022-07-01T14:58:52;24.60;99.90
20744;DHT22;56303;52.160;-0.428;2022-07-01T15:01:19;25.00;98.00
20744;DHT22;56303;52.160;-0.428;2022-07-01T15:03:46;24.80;97.60
20744;DHT22;56303;52.160;-0.428;2022-07-01T15:06:13;24.30;97.70
20744;DHT22;56303;52.160;-0.428;2022-07-01T15:08:40;23.60;97.90
20744;DHT22;56303;52.160;-0.428;2022-07-01T15:11:07;23.30;97.20
20744;DHT22;56303;52.160;-0.428;2022-07-01T15:13:34;23.10;97.90
20744;DHT22;56303;52.160;-0.428;2022-07-01T15:16:05;22.80;97.00
20744;DHT22;56303;52.160;-0.428;2022-07-01T15:18:37;23.20;96.40
20744;DHT22;56303;52.160;-0.428;2022-07-01T15:21:04;24.10;95.60
20744;DHT22;56303;52.160;-0.428;2022-07-01T15:23:31;24.70;95.20
20744;DHT22;56303;52.160;-0.428;2022-07-01T15:25:58;25.40;93.60
20744;DHT22;56303;52.160;-0.428;2022-07-01T15:28:25;24.90;94.00
20744;DHT22;56303;52.160;-0.428;2022-07-01T15:30:52;24.30;95.10
20744;DHT22;56303;52.160;-0.428;2022-07-01T15:33:20;24.50;95.20
20744;DHT22;56303;52.160;-0.428;2022-07-01T15:35:47;24.40;95.20
20744;DHT22;56303;52.160;-0.428;2022-07-01T15:38:14;25.20;94.00
20744;DHT22;56303;52.160;-0.428;2022-07-01T15:40:40;24.40;92.80